sensor_id;sensor_type;location;lat;lon;timestamp;pressure;altitude;pressure_sealevel;temperature;humidity
70690;BME280;58267;51.156;17.044;2024-02-04T00:00:06;100297.06;;;7.02;60.55
70690;BME280;58267;51.156;17.044;2024-02-04T00:02:30;100283.80;;;7.32;60.92
70690;BME280;58267;51.156;17.044;2024-02-04T00:05:00;100285.60;;;7.74;59.85
70690;BME280;58267;51.156;17.044;2024-02-04T00:07:20;100279.16;;;7.47;59.52
70690;BME280;58267;51.156;17.044;2024-02-04T00:09:45;100280.88;;;8.02;58.79
70690;BME280;58267;51.156;17.044;2024-02-04T00:12:12;100276.79;;;7.84;58.73
70690;BME280;58267;51.156;17.044;2024-02-04T00:14:37;100295.65;;;6.94;59.94
70690;BME280;58267;51.156;17.044;2024-02-04T00:17:02;100283.93;;;6.97;59.61
70690;BME280;58267;51.156;17.044;2024-02-04T00:19:27;100287.58;;;6.59;60.14
70690;BME280;58267;51.156;17.044;2024-02-04T00:21:53;100290.23;;;7.52;58.97
70690;BME280;58267;51.156;17.044;2024-02-04T00:24:18;100281.93;;;7.39;58.77
70690;BME280;58267;51.156;17.044;2024-02-04T00:26:44;100296.70;;;6.09;61.49
70690;BME280;58267;51.156;17.044;2024-02-04T00:29:08;100295.58;;;6.83;59.98
70690;BME280;58267;51.156;17.044;2024-02-04T00:31:34;100294.00;;;6.49;60.77
70690;BME280;58267;51.156;17.044;2024-02-04T00:34:04;100288.23;;;7.37;59.04
70690;BME280;58267;51.156;17.044;2024-02-04T00:36:24;100298.03;;;6.95;58.79
70690;BME280;58267;51.156;17.044;2024-02-04T00:38:54;100291.23;;;7.39;58.17
70690;BME280;58267;51.156;17.044;2024-02-04T00:41:14;100297.09;;;6.24;60.50
70690;BME280;58267;51.156;17.044;2024-02-04T00:43:40;100291.22;;;6.95;59.42
70690;BME280;58267;51.156;17.044;2024-02-04T00:46:05;100292.27;;;6.89;58.69
70690;BME280;58267;51.156;17.044;2024-02-04T00:48:30;100290.52;;;7.35;57.95
70690;BME280;58267;51.156;17.044;2024-02-04T00:50:55;100295.05;;;6.63;59.08
70690;BME280;58267;51.156;17.044;2024-02-04T00:53:20;100286.27;;;6.89;58.37
70690;BME280;58267;51.156;17.044;2024-02-04T00:55:45;100288.34;;;7.42;57.03
70690;BME280;58267;51.156;17.044;2024-02-04T00:58:10;100283.04;;;7.21;57.15
70690;BME280;58267;51.156;17.044;2024-02-04T01:00:36;100289.80;;;7.20;58.28
70690;BME280;58267;51.156;17.044;2024-02-04T01:03:01;100288.17;;;6.97;57.63
70690;BME280;58267;51.156;17.044;2024-02-04T01:05:26;100291.13;;;7.32;56.48
70690;BME280;58267;51.156;17.044;2024-02-04T01:07:52;100299.76;;;6.97;57.46
70690;BME280;58267;51.156;17.044;2024-02-04T01:10:17;100304.13;;;7.45;56.28
70690;BME280;58267;51.156;17.044;2024-02-04T01:12:42;100294.78;;;7.15;57.17
70690;BME280;58267;51.156;17.044;2024-02-04T01:15:07;100295.82;;;8.35;54.87
70690;BME280;58267;51.156;17.044;2024-02-04T01:17:32;100292.71;;;8.50;53.67
70690;BME280;58267;51.156;17.044;2024-02-04T01:19:57;100295.03;;;6.96;57.01
70690;BME280;58267;51.156;17.044;2024-02-04T01:22:27;100293.99;;;7.54;56.44
70690;BME280;58267;51.156;17.044;2024-02-04T01:24:48;100295.75;;;7.22;56.19
70690;BME280;58267;51.156;17.044;2024-02-04T01:27:13;100289.78;;;7.15;57.01
70690;BME280;58267;51.156;17.044;2024-02-04T01:29:39;100280.22;;;7.66;55.61
70690;BME280;58267;51.156;17.044;2024-02-04T01:32:04;100284.80;;;7.29;55.96
70690;BME280;58267;51.156;17.044;2024-02-04T01:34:29;100294.31;;;6.26;58.00
70690;BME280;58267;51.156;17.044;2024-02-04T01:36:54;100294.50;;;6.48;57.81
70690;BME280;58267;51.156;17.044;2024-02-04T01:39:19;100283.11;;;6.93;57.21
70690;BME280;58267;51.156;17.044;2024-02-04T01:41:44;100278.93;;;6.78;56.93
70690;BME280;58267;51.156;17.044;2024-02-04T01:44:10;100292.89;;;6.32;59.28
70690;BME280;58267;51.156;17.044;2024-02-04T01:46:35;100287.24;;;6.71;57.88
70690;BME280;58267;51.156;17.044;2024-02-04T01:49:00;100291.91;;;7.15;57.38
70690;BME280;58267;51.156;17.044;2024-02-04T01:51:25;100282.39;;;6.70;57.54
70690;BME280;58267;51.156;17.044;2024-02-04T01:53:50;100265.38;;;6.14;60.06
70690;BME280;58267;51.156;17.044;2024-02-04T01:56:21;100265.02;;;7.32;57.51
70690;BME280;58267;51.156;17.044;2024-02-04T01:58:42;100255.40;;;7.69;57.21
70690;BME280;58267;51.156;17.044;2024-02-04T02:01:07;100265.79;;;6.50;59.32
70690;BME280;58267;51.156;17.044;2024-02-04T02:03:33;100265.04;;;6.46;59.95
70690;BME280;58267;51.156;17.044;2024-02-04T02:05:59;100251.36;;;7.84;56.22
70690;BME280;58267;51.156;17.044;2024-02-04T02:08:23;100249.91;;;7.97;56.27
70690;BME280;58267;51.156;17.044;2024-02-04T02:10:51;100261.09;;;7.46;57.00
70690;BME280;58267;51.156;17.044;2024-02-04T02:13:19;100270.39;;;8.36;55.17
70690;BME280;58267;51.156;17.044;2024-02-04T02:15:43;100273.29;;;8.30;55.29
70690;BME280;58267;51.156;17.044;2024-02-04T02:18:07;100277.66;;;8.06;56.10
70690;BME280;58267;51.156;17.044;2024-02-04T02:20:35;100281.87;;;7.99;55.87
70690;BME280;58267;51.156;17.044;2024-02-04T02:23:07;100279.22;;;8.31;55.59
70690;BME280;58267;51.156;17.044;2024-02-04T02:25:21;100270.74;;;8.47;54.77
70690;BME280;58267;51.156;17.044;2024-02-04T02:27:47;100268.09;;;8.46;54.87
70690;BME280;58267;51.156;17.044;2024-02-04T02:30:12;100268.62;;;7.57;55.93
70690;BME280;58267;51.156;17.044;2024-02-04T02:32:36;100250.86;;;7.90;56.53
70690;BME280;58267;51.156;17.044;2024-02-04T02:35:01;100250.24;;;7.45;57.13
70690;BME280;58267;51.156;17.044;2024-02-04T02:37:29;100241.59;;;7.54;57.73
70690;BME280;58267;51.156;17.044;2024-02-04T02:39:58;100245.87;;;6.86;59.29
70690;BME280;58267;51.156;17.044;2024-02-04T02:42:17;100250.73;;;8.16;56.66
70690;BME280;58267;51.156;17.044;2024-02-04T02:44:43;100256.69;;;7.35;57.79
70690;BME280;58267;51.156;17.044;2024-02-04T02:47:08;100250.64;;;7.57;57.88
70690;BME280;58267;51.156;17.044;2024-02-04T02:49:32;100273.66;;;7.41;58.19
70690;BME280;58267;51.156;17.044;2024-02-04T02:51:57;100258.15;;;7.22;57.89
70690;BME280;58267;51.156;17.044;2024-02-04T02:54:22;100255.62;;;6.46;59.54
70690;BME280;58267;51.156;17.044;2024-02-04T02:56:48;100260.42;;;7.36;57.67
70690;BME280;58267;51.156;17.044;2024-02-04T02:59:13;100251.68;;;7.65;56.21
70690;BME280;58267;51.156;17.044;2024-02-04T03:01:39;100243.65;;;7.27;56.28
70690;BME280;58267;51.156;17.044;2024-02-04T03:04:03;100239.64;;;7.42;55.75
70690;BME280;58267;51.156;17.044;2024-02-04T03:06:28;100234.15;;;6.96;56.26
70690;BME280;58267;51.156;17.044;2024-02-04T03:08:53;100238.88;;;6.70;56.08
70690;BME280;58267;51.156;17.044;2024-02-04T03:11:19;100227.87;;;6.81;55.68
70690;BME280;58267;51.156;17.044;2024-02-04T03:13:44;100236.14;;;6.72;56.17
70690;BME280;58267;51.156;17.044;2024-02-04T03:16:10;100234.00;;;7.84;53.34
70690;BME280;58267;51.156;17.044;2024-02-04T03:18:34;100245.85;;;6.33;55.20
70690;BME280;58267;51.156;17.044;2024-02-04T03:20:59;100242.57;;;7.64;53.33
70690;BME280;58267;51.156;17.044;2024-02-04T03:23:25;100253.10;;;6.62;54.54
70690;BME280;58267;51.156;17.044;2024-02-04T03:25:50;100258.37;;;7.16;53.22
70690;BME280;58267;51.156;17.044;2024-02-04T03:28:15;100247.21;;;7.02;53.66
70690;BME280;58267;51.156;17.044;2024-02-04T03:30:40;100254.10;;;6.86;53.73
70690;BME280;58267;51.156;17.044;2024-02-04T03:33:05;100249.48;;;5.95;56.14
70690;BME280;58267;51.156;17.044;2024-02-04T03:35:30;100262.25;;;6.07;55.95
70690;BME280;58267;51.156;17.044;2024-02-04T03:37:56;100256.39;;;5.89;55.54
70690;BME280;58267;51.156;17.044;2024-02-04T03:40:21;100262.09;;;6.99;53.73
70690;BME280;58267;51.156;17.044;2024-02-04T03:42:46;100264.95;;;6.90;53.30
70690;BME280;58267;51.156;17.044;2024-02-04T03:45:11;100259.38;;;7.61;51.78
70690;BME280;58267;51.156;17.044;2024-02-04T03:47:36;100263.85;;;8.12;50.95
70690;BME280;58267;51.156;17.044;2024-02-04T03:50:02;100272.36;;;6.04;54.17
70690;BME280;58267;51.156;17.044;2024-02-04T03:52:27;100268.26;;;5.83;55.10
70690;BME280;58267;51.156;17.044;2024-02-04T03:54:52;100279.67;;;6.23;54.62
70690;BME280;58267;51.156;17.044;2024-02-04T03:57:17;100288.91;;;6.51;53.88
70690;BME280;58267;51.156;17.044;2024-02-04T03:59:44;100295.64;;;5.68;55.60
70690;BME280;58267;51.156;17.044;2024-02-04T04:02:08;100296.20;;;6.03;54.40
70690;BME280;58267;51.156;17.044;2024-02-04T04:04:33;100301.81;;;5.93;54.12
70690;BME280;58267;51.156;17.044;2024-02-04T04:06:58;100310.25;;;6.40;52.93
70690;BME280;58267;51.156;17.044;2024-02-04T04:09:23;100303.91;;;6.10;52.83
70690;BME280;58267;51.156;17.044;2024-02-04T04:11:49;100301.33;;;6.59;51.38
70690;BME280;58267;51.156;17.044;2024-02-04T04:14:14;100304.81;;;6.37;50.84
70690;BME280;58267;51.156;17.044;2024-02-04T04:16:39;100315.91;;;5.53;52.12
70690;BME280;58267;51.156;17.044;2024-02-04T04:19:04;100315.56;;;6.38;51.18
70690;BME280;58267;51.156;17.044;2024-02-04T04:21:30;100310.78;;;6.23;51.06
70690;BME280;58267;51.156;17.044;2024-02-04T04:23:55;100308.10;;;5.50;52.05
70690;BME280;58267;51.156;17.044;2024-02-04T04:26:20;100307.32;;;6.31;51.01
70690;BME280;58267;51.156;17.044;2024-02-04T04:28:45;100302.28;;;7.20;49.28
70690;BME280;58267;51.156;17.044;2024-02-04T04:31:11;100303.02;;;6.62;50.15
70690;BME280;58267;51.156;17.044;2024-02-04T04:33:36;100310.31;;;6.26;50.51
70690;BME280;58267;51.156;17.044;2024-02-04T04:36:01;100301.24;;;6.82;50.15
70690;BME280;58267;51.156;17.044;2024-02-04T04:38:26;100309.51;;;6.50;50.68
70690;BME280;58267;51.156;17.044;2024-02-04T04:40:51;100315.94;;;5.88;51.45
70690;BME280;58267;51.156;17.044;2024-02-04T04:43:16;100304.57;;;7.46;48.95
70690;BME280;58267;51.156;17.044;2024-02-04T04:45:42;100306.55;;;7.11;48.59
70690;BME280;58267;51.156;17.044;2024-02-04T04:48:08;100309.12;;;7.78;48.29
70690;BME280;58267;51.156;17.044;2024-02-04T04:50:33;100314.74;;;6.57;50.43
70690;BME280;58267;51.156;17.044;2024-02-04T04:52:58;100309.09;;;6.83;49.78
70690;BME280;58267;51.156;17.044;2024-02-04T04:55:23;100304.25;;;7.77;47.83
70690;BME280;58267;51.156;17.044;2024-02-04T04:57:48;100301.56;;;6.92;49.34
70690;BME280;58267;51.156;17.044;2024-02-04T05:00:15;100305.01;;;6.81;49.99
70690;BME280;58267;51.156;17.044;2024-02-04T05:02:40;100306.64;;;5.77;51.87
70690;BME280;58267;51.156;17.044;2024-02-04T05:05:05;100297.66;;;7.13;49.66
70690;BME280;58267;51.156;17.044;2024-02-04T05:07:29;100294.77;;;7.20;48.98
70690;BME280;58267;51.156;17.044;2024-02-04T05:09:54;100300.68;;;6.05;51.13
70690;BME280;58267;51.156;17.044;2024-02-04T05:12:19;100299.63;;;6.51;50.64
70690;BME280;58267;51.156;17.044;2024-02-04T05:14:45;100294.46;;;6.76;50.08
70690;BME280;58267;51.156;17.044;2024-02-04T05:17:10;100300.71;;;6.22;51.01
70690;BME280;58267;51.156;17.044;2024-02-04T05:19:36;100303.09;;;6.62;49.98
70690;BME280;58267;51.156;17.044;2024-02-04T05:22:01;100301.06;;;5.94;51.58
70690;BME280;58267;51.156;17.044;2024-02-04T05:24:26;100297.91;;;5.89;52.69
70690;BME280;58267;51.156;17.044;2024-02-04T05:26:52;100297.97;;;5.95;52.80
70690;BME280;58267;51.156;17.044;2024-02-04T05:29:17;100298.94;;;5.79;52.76
70690;BME280;58267;51.156;17.044;2024-02-04T05:31:43;100302.51;;;6.21;51.86
70690;BME280;58267;51.156;17.044;2024-02-04T05:34:07;100313.66;;;6.22;51.38
70690;BME280;58267;51.156;17.044;2024-02-04T05:36:32;100321.09;;;6.62;50.11
70690;BME280;58267;51.156;17.044;2024-02-04T05:38:57;100325.41;;;5.63;52.27
70690;BME280;58267;51.156;17.044;2024-02-04T05:41:23;100327.67;;;6.00;51.96
70690;BME280;58267;51.156;17.044;2024-02-04T05:43:47;100326.40;;;6.71;50.71
70690;BME280;58267;51.156;17.044;2024-02-04T05:46:13;100326.72;;;6.33;50.39
70690;BME280;58267;51.156;17.044;2024-02-04T05:48:38;100321.22;;;6.71;49.66
70690;BME280;58267;51.156;17.044;2024-02-04T05:51:03;100326.61;;;6.07;50.87
70690;BME280;58267;51.156;17.044;2024-02-04T05:53:28;100327.10;;;6.00;51.22
70690;BME280;58267;51.156;17.044;2024-02-04T05:55:54;100326.95;;;5.96;51.26
70690;BME280;58267;51.156;17.044;2024-02-04T05:58:19;100321.56;;;6.52;50.37
70690;BME280;58267;51.156;17.044;2024-02-04T06:00:44;100323.28;;;5.90;50.60
70690;BME280;58267;51.156;17.044;2024-02-04T06:03:10;100328.02;;;5.91;51.00
70690;BME280;58267;51.156;17.044;2024-02-04T06:05:35;100330.60;;;5.55;52.04
70690;BME280;58267;51.156;17.044;2024-02-04T06:08:00;100328.89;;;5.21;53.17
70690;BME280;58267;51.156;17.044;2024-02-04T06:10:25;100326.55;;;5.74;51.65
70690;BME280;58267;51.156;17.044;2024-02-04T06:12:50;100331.11;;;5.03;53.22
70690;BME280;58267;51.156;17.044;2024-02-04T06:15:16;100326.85;;;6.22;50.93
70690;BME280;58267;51.156;17.044;2024-02-04T06:17:41;100324.85;;;6.24;50.27
70690;BME280;58267;51.156;17.044;2024-02-04T06:20:07;100327.90;;;6.49;49.60
70690;BME280;58267;51.156;17.044;2024-02-04T06:22:31;100324.22;;;6.34;50.08
70690;BME280;58267;51.156;17.044;2024-02-04T06:24:56;100327.88;;;5.62;51.46
70690;BME280;58267;51.156;17.044;2024-02-04T06:27:22;100328.11;;;6.17;50.72
70690;BME280;58267;51.156;17.044;2024-02-04T06:29:47;100332.13;;;6.95;49.27
70690;BME280;58267;51.156;17.044;2024-02-04T06:32:12;100334.83;;;6.92;48.88
70690;BME280;58267;51.156;17.044;2024-02-04T06:34:38;100329.41;;;6.83;48.56
70690;BME280;58267;51.156;17.044;2024-02-04T06:37:03;100316.64;;;6.43;48.85
70690;BME280;58267;51.156;17.044;2024-02-04T06:39:28;100316.35;;;6.70;48.94
70690;BME280;58267;51.156;17.044;2024-02-04T06:41:53;100327.57;;;6.27;49.53
70690;BME280;58267;51.156;17.044;2024-02-04T06:44:19;100329.10;;;6.32;49.60
70690;BME280;58267;51.156;17.044;2024-02-04T06:46:44;100327.32;;;6.79;48.52
70690;BME280;58267;51.156;17.044;2024-02-04T06:49:09;100332.76;;;6.75;48.28
70690;BME280;58267;51.156;17.044;2024-02-04T06:51:34;100324.17;;;6.46;48.99
70690;BME280;58267;51.156;17.044;2024-02-04T06:53:59;100319.75;;;6.62;48.68
70690;BME280;58267;51.156;17.044;2024-02-04T06:56:25;100310.16;;;7.34;47.23
70690;BME280;58267;51.156;17.044;2024-02-04T06:58:50;100322.53;;;5.80;49.83
70690;BME280;58267;51.156;17.044;2024-02-04T07:01:15;100322.36;;;5.96;49.28
70690;BME280;58267;51.156;17.044;2024-02-04T07:03:40;100311.43;;;7.40;47.12
70690;BME280;58267;51.156;17.044;2024-02-04T07:06:06;100314.39;;;6.37;47.78
70690;BME280;58267;51.156;17.044;2024-02-04T07:08:30;100311.53;;;6.16;48.26
70690;BME280;58267;51.156;17.044;2024-02-04T07:10:56;100310.14;;;6.41;48.22
70690;BME280;58267;51.156;17.044;2024-02-04T07:13:21;100316.81;;;6.40;48.13
70690;BME280;58267;51.156;17.044;2024-02-04T07:15:46;100311.07;;;6.20;48.11
70690;BME280;58267;51.156;17.044;2024-02-04T07:18:11;100303.16;;;7.00;47.19
70690;BME280;58267;51.156;17.044;2024-02-04T07:20:36;100296.84;;;6.84;47.51
70690;BME280;58267;51.156;17.044;2024-02-04T07:23:02;100305.74;;;5.72;49.16
70690;BME280;58267;51.156;17.044;2024-02-04T07:25:27;100301.74;;;5.79;48.97
70690;BME280;58267;51.156;17.044;2024-02-04T07:27:53;100294.19;;;6.63;48.23
70690;BME280;58267;51.156;17.044;2024-02-04T07:30:18;100292.25;;;6.97;46.74
70690;BME280;58267;51.156;17.044;2024-02-04T07:32:43;100294.33;;;6.61;47.31
70690;BME280;58267;51.156;17.044;2024-02-04T07:35:09;100301.47;;;6.87;47.11
70690;BME280;58267;51.156;17.044;2024-02-04T07:37:34;100299.73;;;7.07;47.17
70690;BME280;58267;51.156;17.044;2024-02-04T07:40:00;100299.51;;;5.88;48.83
70690;BME280;58267;51.156;17.044;2024-02-04T07:42:24;100290.07;;;6.67;47.45
70690;BME280;58267;51.156;17.044;2024-02-04T07:44:49;100283.48;;;6.60;47.20
70690;BME280;58267;51.156;17.044;2024-02-04T07:47:14;100296.11;;;6.60;47.29
70690;BME280;58267;51.156;17.044;2024-02-04T07:49:40;100299.61;;;5.56;49.59
70690;BME280;58267;51.156;17.044;2024-02-04T07:52:05;100289.92;;;6.66;47.54
70690;BME280;58267;51.156;17.044;2024-02-04T07:54:30;100280.02;;;7.33;46.92
70690;BME280;58267;51.156;17.044;2024-02-04T07:56:55;100279.56;;;7.09;47.08
70690;BME280;58267;51.156;17.044;2024-02-04T07:59:20;100275.23;;;6.22;47.63
70690;BME280;58267;51.156;17.044;2024-02-04T08:01:46;100298.64;;;5.79;48.65
70690;BME280;58267;51.156;17.044;2024-02-04T08:04:12;100288.72;;;6.72;47.38
70690;BME280;58267;51.156;17.044;2024-02-04T08:06:37;100297.86;;;6.29;48.37
70690;BME280;58267;51.156;17.044;2024-02-04T08:09:03;100290.68;;;6.46;47.53
70690;BME280;58267;51.156;17.044;2024-02-04T08:11:28;100286.71;;;6.27;47.99
70690;BME280;58267;51.156;17.044;2024-02-04T08:13:54;100301.90;;;5.80;48.87
70690;BME280;58267;51.156;17.044;2024-02-04T08:16:18;100310.23;;;5.57;48.55
70690;BME280;58267;51.156;17.044;2024-02-04T08:18:44;100282.97;;;6.37;48.28
70690;BME280;58267;51.156;17.044;2024-02-04T08:21:09;100288.39;;;6.21;47.92
70690;BME280;58267;51.156;17.044;2024-02-04T08:23:35;100274.13;;;6.06;48.73
70690;BME280;58267;51.156;17.044;2024-02-04T08:26:01;100272.27;;;6.01;47.83
70690;BME280;58267;51.156;17.044;2024-02-04T08:28:26;100271.25;;;6.99;45.84
70690;BME280;58267;51.156;17.044;2024-02-04T08:30:51;100268.66;;;7.33;45.21
70690;BME280;58267;51.156;17.044;2024-02-04T08:33:16;100281.70;;;6.27;46.07
70690;BME280;58267;51.156;17.044;2024-02-04T08:35:41;100286.84;;;6.20;46.13
70690;BME280;58267;51.156;17.044;2024-02-04T08:38:06;100278.96;;;6.43;45.20
70690;BME280;58267;51.156;17.044;2024-02-04T08:40:32;100266.17;;;6.91;44.78
70690;BME280;58267;51.156;17.044;2024-02-04T08:42:57;100270.86;;;6.86;44.72
70690;BME280;58267;51.156;17.044;2024-02-04T08:45:22;100274.74;;;7.00;43.58
70690;BME280;58267;51.156;17.044;2024-02-04T08:47:47;100268.07;;;6.70;44.23
70690;BME280;58267;51.156;17.044;2024-02-04T08:50:12;100266.28;;;6.97;43.64
70690;BME280;58267;51.156;17.044;2024-02-04T08:52:38;100266.03;;;6.71;44.10
70690;BME280;58267;51.156;17.044;2024-02-04T08:55:03;100270.31;;;6.84;44.63
70690;BME280;58267;51.156;17.044;2024-02-04T08:57:28;100272.52;;;6.47;44.00
70690;BME280;58267;51.156;17.044;2024-02-04T08:59:53;100267.08;;;6.34;44.66
70690;BME280;58267;51.156;17.044;2024-02-04T09:02:18;100267.63;;;6.41;44.05
70690;BME280;58267;51.156;17.044;2024-02-04T09:04:43;100243.18;;;6.69;43.77
70690;BME280;58267;51.156;17.044;2024-02-04T09:07:09;100244.51;;;6.73;43.73
70690;BME280;58267;51.156;17.044;2024-02-04T09:09:34;100247.87;;;7.50;42.36
70690;BME280;58267;51.156;17.044;2024-02-04T09:11:59;100247.83;;;7.56;42.21
70690;BME280;58267;51.156;17.044;2024-02-04T09:14:24;100245.46;;;8.46;41.07
70690;BME280;58267;51.156;17.044;2024-02-04T09:16:49;100241.72;;;7.49;41.67
70690;BME280;58267;51.156;17.044;2024-02-04T09:19:15;100242.50;;;8.60;41.01
70690;BME280;58267;51.156;17.044;2024-02-04T09:21:45;100240.92;;;7.85;41.70
70690;BME280;58267;51.156;17.044;2024-02-04T09:24:05;100240.46;;;7.23;42.78
70690;BME280;58267;51.156;17.044;2024-02-04T09:26:30;100243.43;;;6.69;43.68
70690;BME280;58267;51.156;17.044;2024-02-04T09:28:55;100231.32;;;6.09;44.20
70690;BME280;58267;51.156;17.044;2024-02-04T09:31:21;100224.07;;;7.14;43.41
70690;BME280;58267;51.156;17.044;2024-02-04T09:33:46;100216.65;;;7.39;43.57
70690;BME280;58267;51.156;17.044;2024-02-04T09:36:11;100225.53;;;7.53;42.89
70690;BME280;58267;51.156;17.044;2024-02-04T09:38:36;100238.59;;;7.14;43.85
70690;BME280;58267;51.156;17.044;2024-02-04T09:41:02;100227.30;;;7.81;42.87
70690;BME280;58267;51.156;17.044;2024-02-04T09:43:27;100219.01;;;7.13;43.87
70690;BME280;58267;51.156;17.044;2024-02-04T09:45:52;100229.72;;;7.89;42.51
70690;BME280;58267;51.156;17.044;2024-02-04T09:48:18;100234.41;;;7.20;43.78
70690;BME280;58267;51.156;17.044;2024-02-04T09:50:42;100233.04;;;8.25;42.45
70690;BME280;58267;51.156;17.044;2024-02-04T09:53:09;100222.73;;;7.64;43.52
70690;BME280;58267;51.156;17.044;2024-02-04T09:55:32;100221.02;;;6.11;45.03
70690;BME280;58267;51.156;17.044;2024-02-04T09:57:58;100208.52;;;7.56;43.30
70690;BME280;58267;51.156;17.044;2024-02-04T10:00:23;100195.79;;;8.34;42.31
70690;BME280;58267;51.156;17.044;2024-02-04T10:02:53;100192.04;;;7.83;42.49
70690;BME280;58267;51.156;17.044;2024-02-04T10:05:19;100181.94;;;7.97;42.66
70690;BME280;58267;51.156;17.044;2024-02-04T10:07:39;100178.54;;;7.76;43.10
70690;BME280;58267;51.156;17.044;2024-02-04T10:10:05;100191.14;;;7.40;43.09
70690;BME280;58267;51.156;17.044;2024-02-04T10:12:29;100185.64;;;7.88;43.15
70690;BME280;58267;51.156;17.044;2024-02-04T10:14:54;100179.90;;;8.18;42.89
70690;BME280;58267;51.156;17.044;2024-02-04T10:17:20;100179.19;;;8.20;43.37
70690;BME280;58267;51.156;17.044;2024-02-04T10:19:46;100183.86;;;7.21;44.55
70690;BME280;58267;51.156;17.044;2024-02-04T10:22:10;100181.65;;;7.32;44.97
70690;BME280;58267;51.156;17.044;2024-02-04T10:24:35;100172.46;;;8.00;44.25
70690;BME280;58267;51.156;17.044;2024-02-04T10:27:00;100183.23;;;8.18;44.08
70690;BME280;58267;51.156;17.044;2024-02-04T10:29:26;100175.72;;;7.79;44.68
70690;BME280;58267;51.156;17.044;2024-02-04T10:31:53;100170.58;;;7.57;44.77
70690;BME280;58267;51.156;17.044;2024-02-04T10:34:15;100150.25;;;8.92;42.88
70690;BME280;58267;51.156;17.044;2024-02-04T10:36:41;100148.61;;;8.96;43.38
70690;BME280;58267;51.156;17.044;2024-02-04T10:39:06;100146.82;;;8.71;43.21
70690;BME280;58267;51.156;17.044;2024-02-04T10:41:34;100142.28;;;9.20;42.84
70690;BME280;58267;51.156;17.044;2024-02-04T10:43:59;100144.92;;;9.27;42.68
70690;BME280;58267;51.156;17.044;2024-02-04T10:46:24;100137.15;;;9.25;42.94
70690;BME280;58267;51.156;17.044;2024-02-04T10:48:54;100137.07;;;8.47;44.73
70690;BME280;58267;51.156;17.044;2024-02-04T10:51:15;100131.43;;;8.66;44.62
70690;BME280;58267;51.156;17.044;2024-02-04T10:53:41;100134.60;;;9.62;43.74
70690;BME280;58267;51.156;17.044;2024-02-04T10:56:07;100124.95;;;8.79;44.94
70690;BME280;58267;51.156;17.044;2024-02-04T10:58:31;100120.84;;;8.41;46.01
70690;BME280;58267;51.156;17.044;2024-02-04T11:00:56;100128.53;;;8.74;45.54
70690;BME280;58267;51.156;17.044;2024-02-04T11:03:26;100125.50;;;8.46;46.80
70690;BME280;58267;51.156;17.044;2024-02-04T11:05:47;100115.01;;;8.49;47.05
70690;BME280;58267;51.156;17.044;2024-02-04T11:08:12;100118.64;;;8.56;46.76
70690;BME280;58267;51.156;17.044;2024-02-04T11:10:40;100111.44;;;7.83;48.65
70690;BME280;58267;51.156;17.044;2024-02-04T11:13:03;100111.07;;;8.07;48.26
70690;BME280;58267;51.156;17.044;2024-02-04T11:20:33;100068.76;;;8.53;48.58
70690;BME280;58267;51.156;17.044;2024-02-04T11:22:57;100065.42;;;9.38;46.21
70690;BME280;58267;51.156;17.044;2024-02-04T11:25:30;100065.11;;;8.00;47.80
70690;BME280;58267;51.156;17.044;2024-02-04T11:27:36;100064.68;;;8.91;47.51
70690;BME280;58267;51.156;17.044;2024-02-04T11:30:01;100066.57;;;8.60;47.90
70690;BME280;58267;51.156;17.044;2024-02-04T11:32:26;100067.67;;;7.97;49.78
70690;BME280;58267;51.156;17.044;2024-02-04T11:35:07;100072.53;;;9.25;47.55
70690;BME280;58267;51.156;17.044;2024-02-04T11:37:17;100077.91;;;7.89;50.26
70690;BME280;58267;51.156;17.044;2024-02-04T11:39:49;100069.46;;;7.71;50.56
70690;BME280;58267;51.156;17.044;2024-02-04T11:42:14;100071.98;;;8.31;50.57
70690;BME280;58267;51.156;17.044;2024-02-04T11:44:33;100076.60;;;8.52;49.73
70690;BME280;58267;51.156;17.044;2024-02-04T11:47:00;100074.55;;;8.67;49.17
70690;BME280;58267;51.156;17.044;2024-02-04T11:49:25;100071.64;;;9.22;48.43
70690;BME280;58267;51.156;17.044;2024-02-04T11:51:51;100059.76;;;9.08;48.56
70690;BME280;58267;51.156;17.044;2024-02-04T11:54:15;100054.96;;;9.48;48.39
70690;BME280;58267;51.156;17.044;2024-02-04T11:56:40;100041.41;;;8.97;48.61
70690;BME280;58267;51.156;17.044;2024-02-04T11:59:06;100030.23;;;8.88;49.09
70690;BME280;58267;51.156;17.044;2024-02-04T12:01:31;100028.49;;;8.63;49.46
70690;BME280;58267;51.156;17.044;2024-02-04T12:03:56;100026.90;;;9.01;49.05
70690;BME280;58267;51.156;17.044;2024-02-04T12:06:21;100011.57;;;9.43;48.89
70690;BME280;58267;51.156;17.044;2024-02-04T12:08:47;100008.95;;;9.31;48.48
70690;BME280;58267;51.156;17.044;2024-02-04T12:11:12;100013.47;;;8.81;49.36
70690;BME280;58267;51.156;17.044;2024-02-04T12:13:38;100008.73;;;8.82;48.92
70690;BME280;58267;51.156;17.044;2024-02-04T12:16:03;99993.72;;;9.33;48.28
70690;BME280;58267;51.156;17.044;2024-02-04T12:18:28;99993.14;;;8.80;48.78
70690;BME280;58267;51.156;17.044;2024-02-04T12:20:53;99978.36;;;8.28;50.22
70690;BME280;58267;51.156;17.044;2024-02-04T12:23:19;99978.53;;;8.35;50.24
70690;BME280;58267;51.156;17.044;2024-02-04T12:25:44;99992.21;;;8.26;50.61
70690;BME280;58267;51.156;17.044;2024-02-04T12:28:10;99982.65;;;8.04;50.81
70690;BME280;58267;51.156;17.044;2024-02-04T12:30:35;99975.26;;;7.81;51.34
70690;BME280;58267;51.156;17.044;2024-02-04T12:33:01;99963.56;;;7.72;51.90
70690;BME280;58267;51.156;17.044;2024-02-04T12:35:25;99949.06;;;8.31;50.30
70690;BME280;58267;51.156;17.044;2024-02-04T12:37:51;99939.37;;;8.87;49.81
70690;BME280;58267;51.156;17.044;2024-02-04T12:40:21;99947.47;;;9.05;48.83
70690;BME280;58267;51.156;17.044;2024-02-04T12:42:42;99940.48;;;9.43;48.21